Time;durP1;ratioP1;P1;durP2;ratioP2;P2;SDS_P1;SDS_P2;PMS_P1;PMS_P2;Temp;Humidity;BMP_temperature;BMP_pressure;BME280_temperature;BME280_humidity;BME280_pressure;Samples;Min_cycle;Max_cycle;Signal;HPM_P1;HPM_P2
2022/06/02 00:01:22;;;;;;;4.60;2.20;;;23.50;59.20;;;;;;220696;1268;25413;-57
2022/06/02 00:06:49;;;;;;;5.60;2.20;;;23.60;59.40;;;;;;220600;1268;22590;-62
2022/06/02 00:12:02;;;;;;;4.40;2.10;;;23.60;59.10;;;;;;220451;1268;24217;-60
2022/06/02 00:17:19;;;;;;;7.60;2.00;;;23.60;59.30;;;;;;220643;1268;22706;-58
2022/06/02 00:22:35;;;;;;;5.50;2.50;;;23.60;59.40;;;;;;220183;1268;24272;-55
2022/06/02 00:28:18;;;;;;;5.00;1.80;;;23.60;59.60;;;;;;220523;1268;25396;-55
2022/06/02 00:33:34;;;;;;;4.70;1.80;;;23.60;59.80;;;;;;220300;1268;24234;-58
2022/06/02 00:38:39;;;;;;;5.50;2.10;;;23.60;59.60;;;;;;220577;1268;24367;-59
2022/06/02 00:43:50;;;;;;;3.00;1.90;;;23.60;59.40;;;;;;220647;1268;22595;-60
2022/06/02 00:49:00;;;;;;;3.50;1.90;;;23.60;59.30;;;;;;220724;1268;24293;-60
2022/06/02 00:59:51;;;;;;;2.70;1.60;;;23.60;59.20;;;;;;220274;1268;22548;-61
2022/06/02 01:05:00;;;;;;;4.00;1.80;;;23.60;59.10;;;;;;220605;1268;22768;-58
2022/06/02 01:10:13;;;;;;;4.20;1.80;;;23.60;59.10;;;;;;220406;1274;22846;-59
2022/06/02 01:15:49;;;;;;;3.90;1.70;;;23.60;59.10;;;;;;220707;1268;24268;-57
2022/06/02 01:21:23;;;;;;;2.40;1.40;;;23.50;59.00;;;;;;220628;1268;24463;-58
2022/06/02 01:26:48;;;;;;;3.10;1.50;;;23.50;59.00;;;;;;220481;1268;22612;-59
2022/06/02 01:32:15;;;;;;;2.70;1.50;;;23.50;58.90;;;;;;220386;1268;25674;-58
2022/06/02 01:37:43;;;;;;;4.60;2.00;;;23.50;58.80;;;;;;220395;1268;22714;-59
2022/06/02 01:43:16;;;;;;;6.00;2.20;;;23.40;58.80;;;;;;220313;1268;22549;-59
2022/06/02 01:48:19;;;;;;;4.90;1.60;;;23.40;59.10;;;;;;220320;1268;22758;-59
2022/06/02 01:53:23;;;;;;;2.80;1.80;;;23.40;59.40;;;;;;220349;1268;25264;-63
2022/06/02 01:58:41;;;;;;;4.00;1.60;;;23.40;59.00;;;;;;220440;1268;22549;-58
2022/06/02 02:04:20;;;;;;;2.20;1.20;;;23.40;59.00;;;;;;220417;1268;25290;-62
2022/06/02 02:10:01;;;;;;;3.60;1.60;;;23.30;59.10;;;;;;220162;1268;22571;-57
2022/06/02 02:15:30;;;;;;;3.10;1.20;;;23.30;58.60;;;;;;222105;1268;22541;-58
2022/06/02 02:21:19;;;;;;;3.60;1.70;;;23.30;58.50;;;;;;220475;1268;25358;-59
2022/06/02 02:27:01;;;;;;;2.50;1.50;;;23.30;59.00;;;;;;219581;1268;22536;-60
2022/06/02 02:32:16;;;;;;;3.60;1.60;;;23.30;58.70;;;;;;220128;1269;22724;-58
2022/06/02 02:37:29;;;;;;;3.40;1.30;;;23.30;58.60;;;;;;220207;1268;25342;-58
2022/06/02 02:43:01;;;;;;;4.00;1.50;;;23.30;57.90;;;;;;220446;1268;22768;-64
2022/06/02 02:48:13;;;;;;;2.50;1.40;;;23.20;58.60;;;;;;220686;1268;22540;-62
2022/06/02 02:53:55;;;;;;;3.40;1.60;;;23.30;58.60;;;;;;220734;1268;22554;-59
2022/06/02 02:59:04;;;;;;;2.60;1.70;;;23.30;58.90;;;;;;220405;1268;24522;-57
2022/06/02 03:04:11;;;;;;;1.80;1.20;;;23.20;58.40;;;;;;220378;1268;25225;-57
2022/06/02 03:09:25;;;;;;;5.10;1.80;;;23.20;58.50;;;;;;220189;1268;22675;-62
2022/06/02 03:14:32;;;;;;;2.40;1.40;;;23.20;58.60;;;;;;220226;1268;25511;-59
2022/06/02 03:20:11;;;;;;;2.30;1.30;;;23.20;58.10;;;;;;220245;1268;25241;-56
2022/06/02 03:25:34;;;;;;;2.30;1.50;;;23.20;59.10;;;;;;220545;1268;23144;-59
2022/06/02 03:31:03;;;;;;;2.20;1.30;;;23.20;58.30;;;;;;220410;1268;22546;-57
2022/06/02 03:36:39;;;;;;;1.90;1.40;;;23.10;58.30;;;;;;220256;1268;24217;-59
2022/06/02 03:41:48;;;;;;;4.70;1.70;;;23.20;58.60;;;;;;220476;1268;22532;-61
2022/06/02 03:47:25;;;;;;;1.80;1.10;;;23.10;58.30;;;;;;220630;1268;26749;-63
2022/06/02 03:53:12;;;;;;;2.50;1.50;;;23.10;58.60;;;;;;220572;1268;22610;-60
2022/06/02 03:58:58;;;;;;;2.60;1.30;;;23.10;58.30;;;;;;220797;1268;25359;-58
2022/06/02 04:04:33;;;;;;;3.00;1.60;;;23.10;58.30;;;;;;220353;1268;24217;-61
2022/06/02 04:09:49;;;;;;;2.40;1.20;;;23.10;58.50;;;;;;220318;1268;22540;-59
2022/06/02 04:15:04;;;;;;;3.40;1.70;;;23.10;58.70;;;;;;220187;1271;24260;-60
2022/06/02 04:20:35;;;;;;;4.00;1.80;;;23.10;58.80;;;;;;220875;1268;23023;-63
2022/06/02 04:25:38;;;;;;;;;;;23.10;58.20;;;;;;220704;1268;24191;-58
2022/06/02 04:30:44;;;;;;;4.90;2.10;;;23.10;59.40;;;;;;220351;1268;22847;-59
2022/06/02 04:36:07;;;;;;;3.70;1.20;;;23.10;59.20;;;;;;220758;1268;23089;-57
2022/06/02 04:41:41;;;;;;;3.10;1.50;;;23.10;59.80;;;;;;220472;1268;22632;-59
2022/06/02 04:47:04;;;;;;;9.40;1.70;;;23.20;59.40;;;;;;220887;1268;22529;-66
2022/06/02 04:52:20;;;;;;;4.10;1.90;;;23.10;59.30;;;;;;220435;1268;22561;-57
2022/06/02 04:57:49;;;;;;;4.30;1.70;;;23.10;59.60;;;;;;220778;1268;22535;-63
2022/06/02 05:03:02;;;;;;;2.40;1.30;;;23.10;59.40;;;;;;220644;1268;24427;-61
2022/06/02 05:08:44;;;;;;;6.90;2.00;;;23.10;59.30;;;;;;220642;1268;22610;-65
2022/06/02 05:14:14;;;;;;;3.90;1.70;;;23.10;59.10;;;;;;220467;1270;24278;-60
2022/06/02 05:19:17;;;;;;;2.70;1.40;;;23.10;59.20;;;;;;220657;1268;26560;-60
2022/06/02 05:24:30;;;;;;;2.70;1.50;;;23.10;58.80;;;;;;220642;1268;22730;-60
2022/06/02 05:29:55;;;;;;;3.70;1.40;;;23.10;59.30;;;;;;220586;1268;22538;-66
2022/06/02 05:35:08;;;;;;;3.80;1.50;;;23.10;59.20;;;;;;220586;1268;22609;-58
2022/06/02 05:40:20;;;;;;;5.60;1.60;;;23.00;59.00;;;;;;220639;1268;22553;-62
2022/06/02 05:45:42;;;;;;;3.30;1.30;;;23.00;58.90;;;;;;220717;1268;22546;-60
2022/06/02 05:50:50;;;;;;;4.00;1.30;;;23.10;59.10;;;;;;220394;1268;22548;-65
2022/06/02 05:56:06;;;;;;;6.70;1.50;;;23.00;58.90;;;;;;220725;1268;25397;-60
2022/06/02 06:01:36;;;;;;;3.30;1.40;;;23.10;59.30;;;;;;220334;1268;24304;-60
2022/06/02 06:06:52;;;;;;;6.50;1.60;;;23.00;58.70;;;;;;220180;1270;22580;-60
2022/06/02 06:12:26;;;;;;;3.70;1.00;;;23.00;59.00;;;;;;220457;1268;25286;-59
2022/06/02 06:18:21;;;;;;;3.70;1.60;;;23.00;58.80;;;;;;220354;1268;25236;-61
2022/06/02 06:23:34;;;;;;;9.30;1.80;;;23.00;59.10;;;;;;220404;1268;22571;-64
2022/06/02 06:28:54;;;;;;;3.50;1.50;;;23.00;58.70;;;;;;220781;1268;27406;-58
2022/06/02 06:34:17;;;;;;;7.20;1.50;;;23.00;59.30;;;;;;220523;1268;25343;-58
2022/06/02 06:39:51;;;;;;;5.00;1.50;;;23.10;59.00;;;;;;220820;1268;24250;-60
2022/06/02 06:45:04;;;;;;;4.80;2.30;;;23.20;58.80;;;;;;220450;1268;24421;-60
2022/06/02 06:50:20;;;;;;;7.10;1.40;;;23.20;59.00;;;;;;220083;1268;257129;-65
2022/06/02 06:55:24;;;;;;;11.10;1.70;;;23.20;59.10;;;;;;220284;1268;25547;-63
2022/06/02 07:00:53;;;;;;;5.90;1.40;;;23.30;59.20;;;;;;220097;1268;22523;-59
2022/06/02 07:06:06;;;;;;;4.30;1.50;;;23.20;59.20;;;;;;220406;1268;25377;-60
2022/06/02 07:17:03;;;;;;;5.40;1.90;;;23.20;59.20;;;;;;220388;1268;24304;-60
2022/06/02 07:22:28;;;;;;;12.80;2.30;;;23.20;59.00;;;;;;220441;1268;22529;-60
2022/06/02 07:27:53;;;;;;;7.70;1.90;;;23.20;59.20;;;;;;220263;1268;24205;-62
2022/06/02 07:33:13;;;;;;;5.50;1.60;;;23.20;59.40;;;;;;220799;1268;22549;-61
2022/06/02 07:39:05;;;;;;;8.00;1.80;;;23.20;59.30;;;;;;220516;1268;22648;-58
2022/06/02 07:44:41;;;;;;;7.50;2.20;;;23.30;59.50;;;;;;220468;1270;22699;-63
2022/06/02 07:50:02;;;;;;;6.60;1.70;;;23.30;59.50;;;;;;220998;1268;22741;-67
2022/06/02 07:55:24;;;;;;;3.70;1.80;;;23.30;59.30;;;;;;220579;1268;22541;-64
2022/06/02 08:00:55;;;;;;;4.60;1.30;;;23.30;59.40;;;;;;220739;1268;22566;-63
2022/06/02 08:06:09;;;;;;;6.90;1.70;;;23.40;59.20;;;;;;220519;1268;22707;-59
2022/06/02 08:11:46;;;;;;;3.50;1.50;;;23.40;59.10;;;;;;220869;1268;24218;-64
2022/06/02 08:16:50;;;;;;;8.00;2.20;;;23.40;59.40;;;;;;220705;1268;22566;-63
2022/06/02 08:22:07;;;;;;;5.80;1.80;;;23.50;59.00;;;;;;220518;1268;22554;-58
2022/06/02 08:27:47;;;;;;;3.90;1.90;;;23.50;59.30;;;;;;220782;1268;23061;-64
2022/06/02 08:33:19;;;;;;;5.10;1.40;;;23.50;58.80;;;;;;220578;1268;24336;-64
2022/06/02 08:38:49;;;;;;;7.20;1.50;;;23.50;58.70;;;;;;220759;1267;22724;-55
2022/06/02 08:45:04;;;;;;;7.20;1.60;;;23.60;59.10;;;;;;220574;1267;25461;-64
2022/06/02 08:50:40;;;;;;;4.60;1.60;;;23.60;59.10;;;;;;219279;1276;25324;-60
2022/06/02 08:56:18;;;;;;;4.50;1.60;;;23.60;58.90;;;;;;220026;1268;24521;-63
2022/06/02 09:02:00;;;;;;;3.50;1.40;;;23.70;58.60;;;;;;220277;1268;24057;-64
2022/06/02 09:07:16;;;;;;;2.40;1.40;;;23.70;59.10;;;;;;220734;1268;23892;-62
2022/06/02 09:12:59;;;;;;;4.10;1.40;;;23.70;58.90;;;;;;220550;1268;24411;-61
2022/06/02 09:18:08;;;;;;;3.30;1.70;;;23.70;58.50;;;;;;220596;1268;24241;-62
2022/06/02 09:23:14;;;;;;;2.00;1.30;;;23.70;58.70;;;;;;220915;1268;25095;-62
2022/06/02 09:28:55;;;;;;;6.80;1.60;;;23.70;58.30;;;;;;221027;1268;22531;-68
2022/06/02 09:34:19;;;;;;;5.10;1.20;;;23.80;58.50;;;;;;221236;1265;25341;-63
2022/06/02 09:39:39;;;;;;;6.00;1.30;;;23.80;59.30;;;;;;220729;1265;22607;-65
2022/06/02 09:45:04;;;;;;;3.40;1.50;;;23.80;58.80;;;;;;221034;1268;22551;-61
2022/06/02 09:50:30;;;;;;;4.50;1.60;;;23.90;58.30;;;;;;221093;1265;25261;-64
2022/06/02 09:56:01;;;;;;;2.90;1.40;;;23.90;58.50;;;;;;220870;1268;24288;-62
2022/06/02 10:01:23;;;;;;;4.80;1.40;;;23.90;58.30;;;;;;220941;1265;22884;-61
2022/06/02 10:07:04;;;;;;;3.20;1.40;;;23.90;58.30;;;;;;221159;1264;25581;-65
2022/06/02 10:18:23;;;;;;;4.00;1.20;;;23.90;57.70;;;;;;220592;1265;25610;-61
2022/06/02 10:23:39;;;;;;;5.40;1.30;;;24.00;57.40;;;;;;221132;1265;25406;-67
2022/06/02 10:29:09;;;;;;;5.20;1.20;;;24.00;57.60;;;;;;221135;1265;22701;-62
2022/06/02 10:34:44;;;;;;;3.00;1.10;;;24.00;57.00;;;;;;221068;1268;22548;-64
2022/06/02 10:39:50;;;;;;;2.30;1.30;;;24.00;56.50;;;;;;220606;1265;22521;-67
2022/06/02 10:45:22;;;;;;;2.00;1.10;;;24.00;56.30;;;;;;220589;1265;25534;-63
2022/06/02 10:50:44;;;;;;;2.40;1.30;;;24.00;56.00;;;;;;221166;1265;22523;-63
2022/06/02 10:56:34;;;;;;;3.40;1.40;;;24.00;55.60;;;;;;220777;1265;24292;-66
2022/06/02 11:02:03;;;;;;;2.60;1.20;;;24.00;55.80;;;;;;221135;1269;25233;-62
2022/06/02 11:07:32;;;;;;;5.00;1.60;;;24.00;54.30;;;;;;220774;1265;22547;-67
2022/06/02 11:13:03;;;;;;;2.80;1.30;;;24.00;54.70;;;;;;220967;1268;24074;-65
2022/06/02 11:18:45;;;;;;;3.40;1.30;;;24.10;54.90;;;;;;221088;1265;25435;-63
2022/06/02 11:24:26;;;;;;;2.50;1.10;;;24.10;54.60;;;;;;220898;1265;22607;-66
2022/06/02 11:29:39;;;;;;;2.20;1.30;;;24.10;54.50;;;;;;220810;1265;25467;-63
2022/06/02 11:35:01;;;;;;;1.60;1.10;;;24.10;54.30;;;;;;220884;1265;22676;-65
2022/06/02 11:40:21;;;;;;;4.10;1.30;;;24.10;54.30;;;;;;220632;1265;25485;-63
2022/06/02 11:45:41;;;;;;;1.50;1.10;;;24.10;54.00;;;;;;221200;1265;22522;-61
2022/06/02 11:50:54;;;;;;;2.20;1.20;;;24.10;54.60;;;;;;220781;1265;24289;-70
2022/06/02 11:56:25;;;;;;;2.30;0.90;;;24.20;50.30;;;;;;220541;1268;22521;-64
2022/06/02 12:01:55;;;;;;;3.00;1.30;;;24.30;48.90;;;;;;220938;1271;23894;-68
2022/06/02 12:07:32;;;;;;;1.90;1.10;;;24.30;48.50;;;;;;221085;1265;24212;-67
2022/06/02 12:12:45;;;;;;;3.00;1.00;;;24.30;49.50;;;;;;220895;1268;22644;-67
2022/06/02 12:18:37;;;;;;;3.20;1.00;;;24.30;49.80;;;;;;220933;1265;24466;-66
2022/06/02 12:24:27;;;;;;;2.80;1.00;;;24.20;51.00;;;;;;220174;1268;25325;-63
2022/06/02 12:29:36;;;;;;;2.00;1.00;;;24.30;50.00;;;;;;220712;1265;25447;-61
2022/06/02 12:35:19;;;;;;;3.10;1.20;;;24.30;50.90;;;;;;221159;1269;22553;-66
2022/06/02 12:40:33;;;;;;;1.60;0.90;;;24.30;50.80;;;;;;221046;1265;22702;-72
2022/06/02 12:46:05;;;;;;;1.90;1.10;;;24.30;51.50;;;;;;220595;1265;26859;-62
2022/06/02 12:51:27;;;;;;;3.00;1.20;;;24.30;50.50;;;;;;220666;1267;22628;-62
2022/06/02 12:56:59;;;;;;;2.10;1.10;;;24.30;51.00;;;;;;220483;1265;22602;-63
2022/06/02 13:02:40;;;;;;;2.30;1.20;;;24.30;51.30;;;;;;220608;1265;22601;-62
2022/06/02 13:08:29;;;;;;;2.20;1.10;;;24.30;51.20;;;;;;220760;1265;24296;-63
2022/06/02 13:13:52;;;;;;;;;;;24.30;51.20;;;;;;220860;1265;23198;-63
2022/06/02 13:19:14;;;;;;;3.40;1.30;;;24.30;51.00;;;;;;220785;1265;22567;-63
2022/06/02 13:24:46;;;;;;;3.80;1.10;;;24.30;50.60;;;;;;220741;1265;25566;-62
2022/06/02 13:30:12;;;;;;;2.50;1.20;;;24.30;50.40;;;;;;220838;1265;25279;-63
2022/06/02 13:35:18;;;;;;;3.00;1.10;;;24.30;50.90;;;;;;220663;1265;22522;-67
2022/06/02 13:40:41;;;;;;;3.20;1.30;;;24.30;51.60;;;;;;220335;1267;24062;-63
2022/06/02 13:46:03;;;;;;;2.40;1.10;;;24.30;51.30;;;;;;220687;1265;24230;-63
2022/06/02 13:51:30;;;;;;;3.40;1.40;;;24.40;48.40;;;;;;220963;1265;22528;-65
2022/06/02 14:02:46;;;;;;;8.00;1.70;;;24.50;54.60;;;;;;220951;1265;22521;-61
2022/06/02 14:08:24;;;;;;;4.10;1.50;;;24.60;52.70;;;;;;220760;1267;22646;-62
2022/06/02 14:13:39;;;;;;;3.20;1.50;;;24.70;51.20;;;;;;220652;1265;22531;-61
2022/06/02 14:18:57;;;;;;;4.00;1.40;;;24.60;50.20;;;;;;221111;1265;24412;-62
2022/06/02 14:24:12;;;;;;;3.50;1.40;;;24.60;50.30;;;;;;220448;1264;26569;-64
2022/06/02 14:29:59;;;;;;;4.00;1.30;;;24.50;46.90;;;;;;220961;1265;22527;-63
2022/06/02 14:35:26;;;;;;;2.40;1.30;;;24.50;48.70;;;;;;220760;1265;24286;-63
2022/06/02 14:40:42;;;;;;;5.80;1.40;;;24.60;47.30;;;;;;220648;1268;25363;-62
2022/06/02 14:46:04;;;;;;;6.20;1.90;;;24.60;46.70;;;;;;220178;1267;22718;-63
2022/06/02 14:51:16;;;;;;;7.80;2.20;;;24.60;46.30;;;;;;220273;1267;24410;-63
2022/06/02 14:56:46;;;;;;;7.30;2.20;;;24.60;49.20;;;;;;220425;1265;22770;-63
2022/06/02 15:02:11;;;;;;;9.70;2.10;;;24.70;47.60;;;;;;220068;1265;25395;-60
2022/06/02 15:07:31;;;;;;;4.90;2.20;;;24.80;48.20;;;;;;220588;1265;24257;-59
2022/06/02 15:12:59;;;;;;;15.80;2.10;;;24.90;46.00;;;;;;220342;1265;25779;-60
2022/06/02 15:18:36;;;;;;;6.90;1.90;;;24.90;46.50;;;;;;220601;1265;25437;-59
2022/06/02 15:24:16;;;;;;;7.40;2.00;;;25.10;47.20;;;;;;220747;1265;22547;-61
2022/06/02 15:29:42;;;;;;;;;;;25.10;46.60;;;;;;220613;1269;25328;-60
2022/06/02 15:35:51;;;;;;;3.90;1.40;;;25.10;45.90;;;;;;220324;1269;22635;-60
2022/06/02 15:41:29;;;;;;;5.60;1.30;;;25.10;45.80;;;;;;220218;1265;22537;-58
2022/06/02 15:47:09;;;;;;;2.90;1.20;;;25.00;45.90;;;;;;220509;1270;22545;-59
2022/06/02 15:52:56;;;;;;;5.70;2.00;;;24.90;44.80;;;;;;220353;1265;24292;-60
2022/06/02 15:58:07;;;;;;;4.30;1.60;;;24.90;44.50;;;;;;220452;1268;24299;-61
2022/06/02 16:03:42;;;;;;;6.30;2.60;;;24.80;45.40;;;;;;220610;1265;24335;-61
2022/06/02 16:15:16;;;;;;;2.80;1.20;;;24.60;43.90;;;;;;221010;1265;22586;-60
2022/06/02 16:20:32;;;;;;;4.90;1.70;;;24.60;44.20;;;;;;220820;1265;25503;-63
2022/06/02 16:25:59;;;;;;;4.90;1.40;;;24.60;44.30;;;;;;221036;1269;26461;-64
2022/06/02 16:31:37;;;;;;;6.40;2.20;;;24.60;44.20;;;;;;221028;1265;22912;-63
2022/06/02 16:36:59;;;;;;;6.40;1.80;;;24.50;45.20;;;;;;220708;1269;22601;-61
2022/06/02 16:42:22;;;;;;;6.70;2.50;;;24.60;45.10;;;;;;220940;1268;22520;-56
2022/06/02 16:48:04;;;;;;;6.40;1.90;;;24.50;44.50;;;;;;220621;1268;22690;-62
2022/06/02 16:53:55;;;;;;;5.90;1.90;;;24.60;44.70;;;;;;220944;1268;22540;-63
2022/06/02 16:59:31;;;;;;;8.90;2.40;;;24.60;43.90;;;;;;220994;1265;22849;-60
2022/06/02 17:05:19;;;;;;;6.00;2.10;;;24.60;44.10;;;;;;220794;1265;25238;-60
2022/06/02 17:10:35;;;;;;;7.80;1.90;;;24.60;43.40;;;;;;221014;1270;22531;-62
2022/06/02 17:15:57;;;;;;;8.80;2.20;;;24.60;43.10;;;;;;220961;1270;22547;-60
2022/06/02 17:21:23;;;;;;;5.00;1.90;;;24.60;43.30;;;;;;220676;1268;22543;-63
2022/06/02 17:27:28;;;;;;;7.40;2.30;;;24.50;43.80;;;;;;220623;1268;22847;-60
2022/06/02 17:32:54;;;;;;;6.40;2.00;;;24.50;43.10;;;;;;220000;1274;22583;-58
2022/06/02 17:38:20;;;;;;;12.80;3.20;;;24.50;44.10;;;;;;219950;1270;22534;-62
2022/06/02 17:43:41;;;;;;;10.10;3.10;;;24.50;45.50;;;;;;221182;1266;22537;-62
2022/06/02 17:49:07;;;;;;;9.60;2.10;;;24.50;47.60;;;;;;221205;1268;22528;-63
2022/06/02 17:54:29;;;;;;;6.30;1.80;;;24.40;46.60;;;;;;221030;1265;22533;-64
2022/06/02 18:00:05;;;;;;;4.10;1.70;;;24.30;46.40;;;;;;220497;1268;22571;-60
2022/06/02 18:05:50;;;;;;;4.10;1.50;;;24.40;45.30;;;;;;220936;1268;25422;-59
2022/06/02 18:11:15;;;;;;;10.70;2.00;;;24.30;44.70;;;;;;221003;1265;22690;-64
2022/06/02 18:17:03;;;;;;;10.40;2.90;;;24.30;46.10;;;;;;220939;1268;24389;-67
2022/06/02 18:22:18;;;;;;;13.80;7.20;;;24.20;45.60;;;;;;220314;1268;22930;-63
2022/06/02 18:27:28;;;;;;;15.90;7.60;;;24.10;45.10;;;;;;220636;1268;25390;-61
2022/06/02 18:33:02;;;;;;;11.30;6.90;;;24.00;45.10;;;;;;221009;1268;22525;-63
2022/06/02 18:38:09;;;;;;;13.90;8.50;;;23.80;44.70;;;;;;220874;1265;25556;-62
2022/06/02 18:43:25;;;;;;;14.60;9.80;;;23.60;44.50;;;;;;221074;1269;24405;-60
2022/06/02 18:48:56;;;;;;;12.10;7.60;;;23.60;44.40;;;;;;220757;1265;22713;-65
2022/06/02 18:54:16;;;;;;;10.10;5.80;;;23.50;44.40;;;;;;219596;1265;1763140;-64
2022/06/02 18:59:40;;;;;;;8.60;5.10;;;23.40;44.80;;;;;;221137;1265;26468;-59
2022/06/02 19:05:25;;;;;;;7.70;5.20;;;23.20;44.70;;;;;;221212;1265;22884;-58
2022/06/02 19:16:09;;;;;;;9.50;4.60;;;22.60;44.70;;;;;;220973;1267;24611;-61
2022/06/02 19:21:22;;;;;;;10.40;4.00;;;22.50;45.00;;;;;;220737;1265;25376;-60
2022/06/02 19:26:43;;;;;;;7.10;3.00;;;22.80;45.90;;;;;;221177;1267;24294;-64
2022/06/02 19:32:17;;;;;;;11.40;3.90;;;23.00;44.90;;;;;;220845;1268;22541;-62
2022/06/02 19:37:48;;;;;;;6.60;4.10;;;23.10;44.40;;;;;;220715;1265;25395;-63
2022/06/02 19:43:01;;;;;;;6.80;3.60;;;23.10;44.20;;;;;;220960;1268;22684;-65
2022/06/02 19:48:28;;;;;;;6.20;3.20;;;23.10;44.20;;;;;;220959;1267;22564;-64
2022/06/02 19:53:45;;;;;;;7.90;3.20;;;23.20;44.30;;;;;;220989;1268;24212;-61
2022/06/02 19:59:30;;;;;;;10.40;3.60;;;23.30;45.00;;;;;;221035;1267;23182;-61
2022/06/02 20:05:21;;;;;;;4.50;2.80;;;23.30;45.10;;;;;;220781;1267;25657;-61
2022/06/02 20:10:58;;;;;;;7.30;3.10;;;23.40;45.50;;;;;;220584;1268;22882;-61
2022/06/02 20:16:43;;;;;;;5.30;2.70;;;23.50;46.40;;;;;;220601;1267;25428;-61
2022/06/02 20:22:20;;;;;;;4.60;2.40;;;23.60;46.50;;;;;;220785;1265;24211;-64
2022/06/02 20:27:41;;;;;;;5.20;3.30;;;23.60;46.60;;;;;;220883;1265;25445;-65
2022/06/02 20:33:04;;;;;;;5.70;2.60;;;23.60;46.80;;;;;;221307;1265;24274;-61
2022/06/02 20:38:26;;;;;;;4.80;3.10;;;23.60;47.20;;;;;;221163;1265;22685;-65
2022/06/02 20:43:41;;;;;;;6.30;2.60;;;23.60;47.20;;;;;;221324;1264;22552;-63
2022/06/02 20:49:10;;;;;;;4.90;2.80;;;23.60;47.40;;;;;;221268;1265;22745;-62
2022/06/02 20:54:46;;;;;;;4.00;2.50;;;23.60;47.80;;;;;;221199;1265;22596;-59
2022/06/02 21:00:18;;;;;;;5.40;2.40;;;23.60;47.80;;;;;;221100;1265;22584;-64
2022/06/02 21:05:24;;;;;;;5.10;2.90;;;23.60;48.00;;;;;;220300;1268;26597;-62
2022/06/02 21:10:44;;;;;;;5.80;3.00;;;23.60;47.80;;;;;;220211;1270;22534;-62
2022/06/02 21:15:48;;;;;;;5.20;2.70;;;23.60;48.30;;;;;;220352;1270;22637;-56
2022/06/02 21:20:57;;;;;;;4.60;2.70;;;23.60;48.50;;;;;;220415;1270;22610;-64
2022/06/02 21:26:17;;;;;;;6.30;3.30;;;23.60;48.60;;;;;;220490;1270;22538;-62
2022/06/02 21:31:36;;;;;;;5.40;3.00;;;23.60;48.90;;;;;;220391;1270;25451;-67
2022/06/02 21:37:10;;;;;;;8.00;3.00;;;23.50;49.50;;;;;;220923;1265;24284;-61
2022/06/02 21:42:26;;;;;;;10.40;3.20;;;23.50;50.80;;;;;;220588;1265;25360;-60
2022/06/02 21:48:08;;;;;;;9.60;3.30;;;23.50;51.00;;;;;;220809;1267;24600;-63
2022/06/02 21:53:45;;;;;;;11.10;2.90;;;23.50;50.90;;;;;;220914;1265;22534;-63
2022/06/02 21:58:59;;;;;;;6.40;3.20;;;23.50;50.60;;;;;;221037;1265;24302;-62
2022/06/02 22:04:34;;;;;;;5.10;2.50;;;23.50;50.50;;;;;;220920;1265;23949;-60
2022/06/02 22:09:50;;;;;;;7.10;2.90;;;23.50;50.90;;;;;;220613;1265;23039;-63
2022/06/02 22:15:17;;;;;;;6.60;2.40;;;23.50;50.60;;;;;;220663;1265;25340;-61
2022/06/02 22:20:31;;;;;;;4.10;2.70;;;23.50;51.00;;;;;;220973;1265;24221;-61
2022/06/02 22:26:03;;;;;;;5.80;2.70;;;23.50;50.80;;;;;;220948;1265;24238;-62
2022/06/02 22:31:24;;;;;;;4.50;2.30;;;23.50;50.80;;;;;;220690;1265;22524;-61
2022/06/02 22:36:58;;;;;;;6.40;2.60;;;23.40;50.80;;;;;;220693;1265;25246;-65
2022/06/02 22:42:16;;;;;;;8.20;3.00;;;23.40;50.90;;;;;;220755;1265;24024;-62
2022/06/02 22:47:48;;;;;;;6.40;2.60;;;23.40;50.60;;;;;;220798;1265;24192;-66
2022/06/02 22:53:25;;;;;;;5.90;2.70;;;23.40;51.00;;;;;;220814;1265;22534;-63
2022/06/02 22:58:44;;;;;;;4.90;2.80;;;23.30;51.10;;;;;;220769;1265;24274;-61
2022/06/02 23:04:17;;;;;;;4.50;2.70;;;23.30;51.20;;;;;;220950;1265;23292;-63
2022/06/02 23:09:26;;;;;;;4.80;2.20;;;23.30;51.60;;;;;;220997;1265;22557;-61
2022/06/02 23:15:09;;;;;;;4.60;2.90;;;23.30;51.40;;;;;;220718;1265;23011;-60
2022/06/02 23:20:51;;;;;;;7.40;3.00;;;23.30;51.40;;;;;;220799;1264;22795;-62
2022/06/02 23:26:41;;;;;;;5.20;2.70;;;23.30;51.50;;;;;;220831;1267;25383;-64
2022/06/02 23:31:57;;;;;;;5.30;2.70;;;23.30;51.20;;;;;;220523;1265;25436;-64
2022/06/02 23:37:17;;;;;;;4.30;2.50;;;23.30;52.00;;;;;;221085;1265;22529;-63
2022/06/02 23:48:33;;;;;;;10.40;2.90;;;23.20;51.80;;;;;;220611;1264;24291;-62
2022/06/02 23:54:10;;;;;;;4.50;2.50;;;23.20;51.90;;;;;;220660;1267;23177;-62
2022/06/02 23:59:40;;;;;;;5.50;2.40;;;23.20;51.90;;;;;;220500;1265;22550;-61
